createdAt,value
2022-08-08T00:00:50.782Z,95.00
2022-08-08T00:02:35.169Z,95.00
2022-08-08T00:05:17.327Z,95.50
2022-08-08T00:07:56.116Z,95.50
2022-08-08T00:10:36.994Z,96.10
2022-08-08T00:14:16.634Z,96.50
2022-08-08T00:16:13.672Z,97.00
2022-08-08T00:19:16.151Z,96.80
2022-08-08T00:21:52.403Z,96.90
2022-08-08T00:24:29.977Z,97.40
2022-08-08T00:27:07.011Z,97.80
2022-08-08T00:29:46.846Z,98.20
2022-08-08T00:32:34.313Z,98.20
2022-08-08T00:35:21.366Z,99.00
2022-08-08T00:38:06.744Z,99.40
2022-08-08T00:41:09.170Z,99.70
2022-08-08T00:43:46.163Z,99.90
2022-08-08T00:46:57.677Z,99.90
2022-08-08T00:50:03.209Z,99.90
2022-08-08T00:52:54.703Z,99.90
2022-08-08T00:55:36.269Z,99.90
2022-08-08T00:58:57.784Z,99.90
2022-08-08T01:02:02.444Z,99.90
2022-08-08T01:05:10.621Z,99.90
2022-08-08T01:08:15.581Z,99.90
2022-08-08T01:10:56.616Z,99.90
2022-08-08T01:14:00.770Z,99.90
2022-08-08T01:16:31.212Z,99.90
2022-08-08T01:19:11.697Z,99.90
2022-08-08T01:22:12.030Z,99.90
2022-08-08T01:24:50.887Z,99.90
2022-08-08T01:27:44.583Z,99.90
2022-08-08T01:30:43.068Z,99.90
2022-08-08T01:33:54.240Z,99.90
2022-08-08T01:36:55.021Z,99.90
2022-08-08T01:39:49.367Z,99.90
2022-08-08T01:42:40.787Z,99.90
2022-08-08T01:45:28.945Z,99.90
2022-08-08T01:48:30.892Z,99.90
2022-08-08T01:51:32.154Z,99.90
2022-08-08T01:55:26.623Z,99.90
2022-08-08T01:58:04.344Z,99.90
2022-08-08T02:00:27.860Z,99.90
2022-08-08T02:03:57.693Z,99.90
2022-08-08T02:06:31.888Z,99.90
2022-08-08T02:09:17.532Z,99.90
2022-08-08T02:11:58.901Z,99.90
2022-08-08T02:14:49.814Z,99.90
2022-08-08T02:17:42.481Z,99.90
2022-08-08T02:20:59.822Z,99.90
2022-08-08T02:23:31.747Z,99.90
2022-08-08T02:26:11.819Z,99.90
2022-08-08T02:29:47.031Z,99.90
2022-08-08T02:33:02.812Z,99.90
2022-08-08T02:36:03.531Z,99.90
2022-08-08T02:38:49.239Z,99.90
2022-08-08T02:41:58.651Z,99.90
2022-08-08T02:44:56.941Z,99.90
2022-08-08T02:47:40.125Z,99.90
2022-08-08T02:50:52.787Z,99.90
2022-08-08T02:53:24.116Z,99.90
2022-08-08T02:56:27.345Z,99.90
2022-08-08T02:59:36.884Z,99.90
2022-08-08T03:02:33.905Z,99.90
2022-08-08T03:05:14.207Z,99.90
2022-08-08T03:08:05.736Z,99.90
2022-08-08T03:10:53.419Z,99.90
2022-08-08T03:16:01.578Z,99.90
2022-08-08T03:16:36.004Z,99.90
2022-08-08T03:19:20.077Z,99.90
2022-08-08T03:21:54.682Z,99.90
2022-08-08T03:24:25.053Z,99.90
2022-08-08T03:27:00.829Z,99.90
2022-08-08T03:29:54.549Z,99.90
2022-08-08T03:32:41.361Z,99.90
2022-08-08T03:35:10.520Z,99.90
2022-08-08T03:38:53.570Z,99.90
2022-08-08T03:40:30.245Z,99.90
2022-08-08T03:43:16.473Z,99.90
2022-08-08T03:46:05.125Z,99.90
2022-08-08T03:49:10.078Z,99.90
2022-08-08T03:51:40.361Z,99.90
2022-08-08T03:54:10.076Z,99.90
2022-08-08T03:56:43.536Z,99.90
2022-08-08T03:59:22.514Z,99.90
2022-08-08T04:02:13.098Z,99.90
2022-08-08T04:04:37.863Z,99.90
2022-08-08T04:07:04.792Z,99.90
2022-08-08T04:09:58.939Z,99.90
2022-08-08T04:12:18.530Z,99.90
2022-08-08T04:14:46.681Z,99.90
2022-08-08T04:17:40.848Z,99.90
2022-08-08T04:20:05.888Z,99.90
2022-08-08T04:22:35.566Z,99.90
2022-08-08T04:25:03.843Z,99.90
2022-08-08T04:28:03.677Z,99.90
2022-08-08T04:30:19.690Z,99.90
2022-08-08T04:32:49.847Z,99.90
2022-08-08T04:35:20.205Z,99.90
2022-08-08T04:37:51.150Z,99.90
2022-08-08T04:40:19.220Z,99.90
2022-08-08T04:42:56.700Z,99.90
2022-08-08T04:45:25.730Z,99.90
2022-08-08T04:47:54.065Z,99.90
2022-08-08T04:50:24.142Z,99.90
2022-08-08T04:53:00.817Z,99.90
2022-08-08T04:55:47.886Z,99.90
2022-08-08T04:58:19.725Z,99.90
2022-08-08T05:00:48.247Z,99.90
2022-08-08T05:03:18.825Z,99.90
2022-08-08T05:06:13.082Z,99.90
2022-08-08T05:08:51.557Z,99.90
2022-08-08T05:11:22.555Z,99.90
2022-08-08T05:13:58.605Z,99.90
2022-08-08T05:16:50.862Z,99.90
2022-08-08T05:20:11.903Z,99.90
2022-08-08T05:22:03.009Z,99.90
2022-08-08T05:24:30.819Z,99.90
2022-08-08T05:26:58.497Z,99.90
2022-08-08T05:29:29.104Z,99.90
2022-08-08T05:32:04.323Z,99.90
2022-08-08T05:34:47.402Z,99.90
2022-08-08T05:37:28.292Z,99.90
2022-08-08T05:40:14.794Z,99.90
2022-08-08T05:42:46.375Z,99.90
2022-08-08T05:45:25.039Z,99.90
2022-08-08T05:48:08.305Z,99.90
2022-08-08T05:50:36.382Z,99.90
2022-08-08T05:53:53.752Z,99.90
2022-08-08T05:56:10.357Z,99.90
2022-08-08T05:58:53.619Z,99.90
2022-08-08T06:01:51.808Z,99.90
2022-08-08T06:04:22.933Z,99.90
2022-08-08T06:06:56.569Z,99.90
2022-08-08T06:09:59.440Z,99.90
2022-08-08T06:12:29.888Z,99.90
2022-08-08T06:15:00.349Z,99.90
2022-08-08T06:17:50.373Z,99.90
2022-08-08T06:20:16.197Z,99.90
2022-08-08T06:22:43.444Z,99.90
2022-08-08T06:25:11.344Z,99.90
2022-08-08T06:27:48.420Z,99.90
2022-08-08T06:30:20.170Z,99.90
2022-08-08T06:33:01.353Z,99.90
2022-08-08T06:36:08.137Z,99.90
2022-08-08T06:38:27.808Z,99.90
2022-08-08T06:41:04.096Z,99.90
2022-08-08T06:43:36.073Z,99.90
2022-08-08T06:46:03.846Z,99.90
2022-08-08T06:48:30.922Z,99.90
2022-08-08T06:50:58.381Z,99.90
2022-08-08T06:53:38.842Z,99.90
2022-08-08T06:56:09.260Z,99.90
2022-08-08T06:58:36.965Z,99.90
2022-08-08T07:01:24.454Z,99.90
2022-08-08T07:04:38.020Z,99.90
2022-08-08T07:07:10.478Z,99.90
2022-08-08T07:09:59.659Z,99.90
2022-08-08T07:12:47.432Z,99.90
2022-08-08T07:15:32.148Z,99.90
2022-08-08T07:18:34.488Z,99.90
2022-08-08T07:21:01.864Z,99.90
2022-08-08T07:24:14.322Z,99.90
2022-08-08T07:26:46.953Z,99.90
2022-08-08T07:29:54.595Z,99.90
2022-08-08T07:32:07.733Z,99.90
2022-08-08T07:34:36.163Z,99.90
2022-08-08T07:37:17.104Z,99.90
2022-08-08T07:39:56.039Z,99.90
2022-08-08T07:42:32.901Z,99.90
2022-08-08T07:45:00.784Z,99.90
2022-08-08T07:47:39.008Z,99.90
2022-08-08T07:50:07.521Z,99.90
2022-08-08T07:52:35.895Z,99.90
2022-08-08T07:55:17.305Z,99.90
2022-08-08T07:57:59.777Z,99.90
2022-08-08T08:00:39.342Z,99.90
2022-08-08T08:03:20.679Z,99.90
2022-08-08T08:05:53.353Z,99.90
2022-08-08T08:08:27.801Z,99.90
2022-08-08T08:10:58.592Z,99.90
2022-08-08T08:14:07.471Z,99.90
2022-08-08T08:16:35.872Z,99.90
2022-08-08T08:19:09.389Z,99.90
2022-08-08T08:21:57.736Z,99.90
2022-08-08T08:24:32.081Z,99.90
2022-08-08T08:27:02.692Z,99.90
2022-08-08T08:29:30.735Z,99.90
2022-08-08T08:31:59.262Z,99.90
2022-08-08T08:34:31.931Z,99.90
2022-08-08T08:37:00.324Z,99.90
2022-08-08T08:39:59.994Z,99.90
2022-08-08T08:42:19.407Z,99.90
2022-08-08T08:45:21.552Z,99.90
2022-08-08T08:47:52.972Z,99.90
2022-08-08T08:50:33.607Z,99.90
2022-08-08T08:53:28.201Z,99.90
2022-08-08T08:55:56.194Z,99.90
2022-08-08T08:58:32.811Z,99.90
2022-08-08T09:01:09.765Z,99.90
2022-08-08T09:03:47.083Z,99.90
2022-08-08T09:06:28.789Z,99.90
2022-08-08T09:09:37.514Z,99.90
2022-08-08T09:12:09.640Z,99.90
2022-08-08T09:14:42.311Z,99.90
2022-08-08T09:17:17.929Z,99.90
2022-08-08T09:22:02.795Z,99.90
2022-08-08T09:22:39.584Z,99.90
2022-08-08T09:25:07.672Z,99.90
2022-08-08T09:27:57.032Z,99.90
2022-08-08T09:30:26.941Z,99.20
2022-08-08T09:33:13.174Z,99.00
2022-08-08T09:35:49.367Z,98.40
2022-08-08T09:38:30.118Z,98.40
2022-08-08T09:41:05.255Z,98.10
2022-08-08T09:44:04.763Z,97.50
2022-08-08T09:46:30.615Z,97.20
2022-08-08T09:49:04.287Z,96.50
2022-08-08T09:52:07.580Z,95.50
2022-08-08T09:54:44.684Z,94.90
2022-08-08T09:57:17.637Z,93.90
2022-08-08T10:00:28.315Z,94.50
2022-08-08T10:02:46.768Z,92.80
2022-08-08T10:05:22.665Z,92.40
2022-08-08T10:07:52.195Z,91.70
2022-08-08T10:10:30.437Z,91.60
2022-08-08T10:13:14.190Z,91.50
2022-08-08T10:15:59.182Z,91.20
2022-08-08T10:18:30.042Z,89.70
2022-08-08T10:21:25.247Z,88.20
2022-08-08T10:23:59.868Z,89.10
2022-08-08T10:26:57.334Z,87.70
2022-08-08T10:29:59.087Z,87.30
2022-08-08T10:32:33.923Z,86.90
2022-08-08T10:36:07.163Z,86.50
2022-08-08T10:38:05.855Z,85.50
2022-08-08T10:40:38.617Z,84.40
2022-08-08T10:43:07.053Z,82.90
2022-08-08T10:45:57.329Z,83.30
2022-08-08T10:48:57.559Z,84.40
2022-08-08T10:51:26.089Z,85.00
2022-08-08T10:54:00.019Z,85.30
2022-08-08T10:56:36.356Z,85.00
2022-08-08T10:59:14.088Z,84.60
2022-08-08T11:01:49.622Z,83.10
2022-08-08T11:04:29.547Z,81.90
2022-08-08T11:07:06.680Z,82.20
2022-08-08T11:09:34.411Z,82.10
2022-08-08T11:12:13.250Z,82.80
2022-08-08T11:14:53.104Z,82.10
2022-08-08T11:17:58.658Z,82.30
2022-08-08T11:20:21.457Z,81.80
2022-08-08T11:22:57.010Z,81.20
2022-08-08T11:25:53.631Z,80.10
2022-08-08T11:28:19.475Z,80.80
2022-08-08T11:30:52.017Z,79.50
2022-08-08T11:33:35.289Z,78.60
2022-08-08T11:36:13.490Z,77.60
2022-08-08T11:38:55.499Z,77.80
2022-08-08T11:41:25.042Z,76.70
2022-08-08T11:43:57.953Z,76.60
2022-08-08T11:46:27.996Z,77.20
2022-08-08T11:48:55.648Z,76.50
2022-08-08T11:51:38.729Z,76.80
2022-08-08T11:54:09.876Z,75.40
2022-08-08T11:56:58.255Z,76.20
2022-08-08T11:59:58.829Z,74.20
2022-08-08T12:02:36.966Z,74.70
2022-08-08T12:05:13.066Z,73.70
2022-08-08T12:07:56.745Z,72.60
2022-08-08T12:10:30.426Z,73.10
2022-08-08T12:13:21.899Z,72.30
2022-08-08T12:16:10.078Z,72.40
2022-08-08T12:18:54.478Z,72.80
2022-08-08T12:21:25.931Z,73.50
2022-08-08T12:24:14.301Z,72.20
2022-08-08T12:26:44.177Z,72.70
2022-08-08T12:29:40.156Z,71.30
2022-08-08T12:32:13.515Z,69.60
2022-08-08T12:35:01.271Z,69.00
2022-08-08T12:37:47.860Z,68.00
2022-08-08T12:40:54.253Z,67.40
2022-08-08T12:43:47.633Z,65.50
2022-08-08T12:46:25.288Z,63.30
2022-08-08T12:51:59.333Z,63.00
2022-08-08T12:54:40.976Z,64.80
2022-08-08T12:57:16.942Z,65.30
2022-08-08T13:00:03.537Z,64.10
2022-08-08T13:02:36.090Z,65.20
2022-08-08T13:05:15.674Z,64.60
2022-08-08T13:08:03.487Z,64.50
2022-08-08T13:10:36.552Z,61.60
2022-08-08T13:13:37.388Z,58.00
2022-08-08T13:16:37.621Z,56.80
2022-08-08T13:19:13.992Z,54.60
2022-08-08T13:21:53.833Z,50.40
2022-08-08T13:24:42.507Z,49.20
2022-08-08T13:27:18.468Z,48.80
2022-08-08T13:29:58.026Z,47.00
2022-08-08T13:32:26.685Z,46.70
2022-08-08T13:34:55.969Z,46.40
2022-08-08T13:37:51.762Z,46.00
2022-08-08T13:40:18.114Z,47.40
2022-08-08T13:42:55.987Z,48.20
2022-08-08T13:45:24.359Z,47.30
2022-08-08T13:48:03.826Z,47.00
2022-08-08T13:50:49.426Z,47.50
2022-08-08T13:53:35.974Z,45.30
2022-08-08T13:56:11.290Z,44.70
2022-08-08T13:58:57.829Z,45.10
2022-08-08T14:01:52.540Z,45.60
2022-08-08T14:04:24.876Z,45.10
2022-08-08T14:07:03.462Z,44.40
2022-08-08T14:10:04.299Z,43.60
2022-08-08T14:12:29.553Z,42.10
2022-08-08T14:14:56.859Z,41.30
2022-08-08T14:17:57.749Z,40.80
2022-08-08T14:20:15.508Z,41.10
2022-08-08T14:23:21.415Z,40.70
2022-08-08T14:26:02.107Z,40.70
2022-08-08T14:28:39.973Z,40.30
2022-08-08T14:31:09.697Z,39.70
2022-08-08T14:33:37.271Z,40.00
2022-08-08T14:36:13.239Z,39.80
2022-08-08T14:38:52.409Z,39.30
2022-08-08T14:41:45.492Z,37.80
2022-08-08T14:44:19.483Z,37.40
2022-08-08T14:46:58.596Z,36.90
2022-08-08T14:49:37.903Z,36.00
2022-08-08T14:52:21.659Z,37.10
2022-08-08T14:54:49.626Z,37.50
2022-08-08T14:57:17.118Z,37.20
2022-08-08T14:59:50.845Z,36.50
2022-08-08T15:02:31.106Z,36.30
2022-08-08T15:05:08.107Z,36.30
2022-08-08T15:07:40.373Z,36.20
2022-08-08T15:10:09.531Z,36.70
2022-08-08T15:12:37.821Z,37.30
2022-08-08T15:15:09.165Z,37.60
2022-08-08T15:17:42.738Z,37.20
2022-08-08T15:20:14.370Z,37.60
2022-08-08T15:22:44.694Z,37.80
2022-08-08T15:25:17.714Z,38.40
2022-08-08T15:28:03.748Z,37.90
2022-08-08T15:30:43.766Z,36.20
2022-08-08T15:33:14.366Z,36.10
2022-08-08T15:36:00.093Z,36.10
2022-08-08T15:38:27.860Z,36.30
2022-08-08T15:40:54.799Z,35.70
2022-08-08T15:43:35.614Z,36.10
2022-08-08T15:46:03.641Z,36.30
2022-08-08T15:48:31.089Z,37.00
2022-08-08T15:51:01.035Z,36.90
2022-08-08T15:53:40.316Z,37.00
2022-08-08T15:56:16.157Z,37.80
2022-08-08T15:58:48.818Z,38.10
2022-08-08T16:01:16.756Z,37.80
2022-08-08T16:03:46.118Z,38.60
2022-08-08T16:06:27.808Z,38.60
2022-08-08T16:09:08.056Z,38.30
2022-08-08T16:13:20.624Z,39.20
2022-08-08T16:14:32.505Z,38.40
2022-08-08T16:17:01.075Z,38.50
2022-08-08T16:19:30.270Z,38.30
2022-08-08T16:22:30.261Z,38.20
2022-08-08T16:24:58.179Z,38.20
2022-08-08T16:27:25.186Z,38.10
2022-08-08T16:30:12.848Z,38.00
2022-08-08T16:32:41.333Z,38.90
2022-08-08T16:35:08.781Z,40.20
2022-08-08T16:37:36.174Z,41.30
2022-08-08T16:40:04.304Z,40.60
2022-08-08T16:42:31.599Z,40.50
2022-08-08T16:45:11.340Z,41.30
2022-08-08T16:47:49.628Z,41.20
2022-08-08T16:50:20.161Z,40.60
2022-08-08T16:55:04.081Z,40.90
2022-08-08T16:55:53.050Z,42.00
2022-08-08T16:58:25.654Z,42.00
2022-08-08T17:00:54.988Z,41.10
2022-08-08T17:03:25.516Z,41.20
2022-08-08T17:06:37.563Z,41.60
2022-08-08T17:08:57.367Z,41.60
2022-08-08T17:11:27.999Z,42.30
2022-08-08T17:14:01.502Z,43.20
2022-08-08T17:16:30.887Z,43.40
2022-08-08T17:18:58.433Z,43.90
2022-08-08T17:21:37.481Z,43.60
2022-08-08T17:24:21.899Z,44.20
2022-08-08T17:26:57.963Z,44.50
2022-08-08T17:29:26.786Z,44.60
2022-08-08T17:31:54.011Z,45.70
2022-08-08T17:34:48.940Z,46.10
2022-08-08T17:37:11.270Z,46.30
2022-08-08T17:40:03.820Z,46.60
2022-08-08T17:42:26.925Z,46.50
2022-08-08T17:44:54.701Z,46.90
2022-08-08T17:47:37.635Z,47.50
2022-08-08T17:50:09.657Z,47.60
2022-08-08T17:52:38.300Z,47.70
2022-08-08T17:56:06.192Z,48.10
2022-08-08T17:57:58.614Z,48.30
2022-08-08T18:00:30.485Z,48.50
2022-08-08T18:03:08.019Z,48.90
2022-08-08T18:05:48.100Z,48.70
2022-08-08T18:08:25.317Z,48.60
2022-08-08T18:11:15.992Z,48.70
2022-08-08T18:13:47.510Z,49.40
2022-08-08T18:16:20.654Z,50.30
2022-08-08T18:18:56.309Z,51.10
2022-08-08T18:21:58.952Z,52.00
2022-08-08T18:24:19.654Z,52.80
2022-08-08T18:26:54.671Z,53.20
2022-08-08T18:29:33.189Z,53.60
2022-08-08T18:32:08.630Z,54.20
2022-08-08T18:34:40.341Z,55.30
2022-08-08T18:37:17.666Z,56.00
2022-08-08T18:39:57.723Z,56.70
2022-08-08T18:42:24.700Z,57.00
2022-08-08T18:44:55.210Z,57.40
2022-08-08T18:47:23.944Z,58.00
2022-08-08T18:49:58.599Z,58.80
2022-08-08T18:52:27.856Z,59.30
2022-08-08T18:55:00.639Z,59.60
2022-08-08T18:57:41.096Z,60.70
2022-08-08T19:00:15.437Z,61.50
2022-08-08T19:02:54.739Z,62.30
2022-08-08T19:05:24.347Z,63.50
2022-08-08T19:07:59.629Z,63.80
2022-08-08T19:10:27.591Z,64.20
2022-08-08T19:12:54.467Z,64.70
2022-08-08T19:15:26.045Z,64.80
2022-08-08T19:18:32.870Z,65.00
2022-08-08T19:20:47.625Z,65.40
2022-08-08T19:23:14.589Z,66.30
2022-08-08T19:26:19.629Z,66.40
2022-08-08T19:28:30.905Z,66.90
2022-08-08T19:31:04.097Z,67.20
2022-08-08T19:33:39.680Z,67.70
2022-08-08T19:36:27.780Z,67.60
2022-08-08T19:38:56.024Z,67.90
2022-08-08T19:41:30.799Z,68.50
2022-08-08T19:44:03.923Z,68.60
2022-08-08T19:46:33.271Z,69.30
2022-08-08T19:49:01.422Z,69.70
2022-08-08T19:51:34.942Z,70.30
2022-08-08T19:54:08.523Z,70.60
2022-08-08T19:56:40.063Z,71.20
2022-08-08T19:59:09.233Z,71.40
2022-08-08T20:02:01.066Z,71.70
2022-08-08T20:04:24.021Z,72.30
2022-08-08T20:06:51.145Z,73.00
2022-08-08T20:09:22.882Z,73.50
2022-08-08T20:11:50.617Z,74.00
2022-08-08T20:14:34.053Z,74.60
2022-08-08T20:17:02.848Z,75.10
2022-08-08T20:19:34.282Z,75.30
2022-08-08T20:22:13.068Z,75.90
2022-08-08T20:24:48.685Z,76.20
2022-08-08T20:27:20.230Z,76.60
2022-08-08T20:29:55.828Z,76.70
2022-08-08T20:32:29.723Z,77.20
2022-08-08T20:35:00.995Z,77.60
2022-08-08T20:37:37.355Z,77.60
2022-08-08T20:40:16.830Z,77.80
2022-08-08T20:42:55.302Z,78.50
2022-08-08T20:45:54.331Z,78.40
2022-08-08T20:48:09.799Z,79.10
2022-08-08T20:50:37.672Z,79.60
2022-08-08T20:53:06.882Z,79.60
2022-08-08T20:55:43.219Z,79.90
2022-08-08T20:58:22.939Z,80.40
2022-08-08T21:00:50.374Z,81.00
2022-08-08T21:03:17.398Z,81.10
2022-08-08T21:05:58.533Z,81.80
2022-08-08T21:08:37.137Z,81.80
2022-08-08T21:11:13.441Z,82.40
2022-08-08T21:13:42.846Z,82.60
2022-08-08T21:16:18.214Z,82.80
2022-08-08T21:18:57.303Z,82.80
2022-08-08T21:21:39.804Z,83.00
2022-08-08T21:24:22.287Z,83.40
2022-08-08T21:26:55.585Z,83.60
2022-08-08T21:30:03.749Z,83.90
2022-08-08T21:32:14.039Z,84.20
2022-08-08T21:34:49.627Z,84.00
2022-08-08T21:37:19.135Z,84.00
2022-08-08T21:39:56.173Z,84.50
2022-08-08T21:42:24.155Z,84.70
2022-08-08T21:44:58.911Z,85.00
2022-08-08T21:48:05.363Z,85.60
2022-08-08T21:50:14.979Z,85.80
2022-08-08T21:54:32.213Z,85.90
2022-08-08T21:56:26.072Z,86.30
2022-08-08T21:58:17.415Z,86.30
2022-08-08T22:00:44.334Z,86.80
2022-08-08T22:03:17.786Z,87.20
2022-08-08T22:05:45.218Z,87.30
2022-08-08T22:08:15.346Z,87.70
2022-08-08T22:10:42.251Z,87.80
2022-08-08T22:13:17.047Z,88.20
2022-08-08T22:15:58.645Z,88.50
2022-08-08T22:18:30.748Z,89.00
2022-08-08T22:21:01.493Z,89.30
2022-08-08T22:23:41.061Z,89.80
2022-08-08T22:26:29.316Z,89.50
2022-08-08T22:29:13.339Z,89.80
2022-08-08T22:32:01.961Z,90.10
2022-08-08T22:34:31.595Z,90.10
2022-08-08T22:36:58.661Z,90.30
2022-08-08T22:39:39.205Z,90.40
2022-08-08T22:42:24.166Z,90.40
2022-08-08T22:44:54.535Z,90.50
2022-08-08T22:47:21.455Z,90.80
2022-08-08T22:49:54.268Z,91.40
2022-08-08T22:52:33.377Z,91.30
2022-08-08T22:55:05.307Z,91.50
2022-08-08T22:57:43.670Z,91.50
2022-08-08T23:00:13.479Z,91.70
2022-08-08T23:02:40.667Z,91.80
2022-08-08T23:05:13.701Z,92.10
2022-08-08T23:07:51.407Z,92.40
2022-08-08T23:10:25.190Z,92.60
2022-08-08T23:12:54.142Z,92.80
2022-08-08T23:16:39.603Z,93.10
2022-08-08T23:18:11.533Z,93.50
2022-08-08T23:20:40.763Z,93.90
2022-08-08T23:23:10.991Z,94.40
2022-08-08T23:25:47.907Z,94.50
2022-08-08T23:28:16.189Z,94.80
2022-08-08T23:30:45.093Z,95.00
2022-08-08T23:33:19.441Z,95.10
2022-08-08T23:36:08.516Z,95.30
2022-08-08T23:38:44.144Z,96.10
2022-08-08T23:41:17.490Z,96.50
2022-08-08T23:43:54.314Z,97.00
2022-08-08T23:49:02.870Z,97.60
2022-08-08T23:49:14.862Z,98.00
2022-08-08T23:52:06.104Z,98.50
2022-08-08T23:54:42.046Z,99.10
2022-08-08T23:57:25.448Z,99.60
